sensor_id;sensor_type;location;lat;lon;timestamp;P1;durP1;ratioP1;P2;durP2;ratioP2
58091;SDS011;43896;48.178;11.578;2023-03-01T00:00:59;18.65;;;10.85;;
58091;SDS011;43896;48.178;11.578;2023-03-01T00:03:29;18.45;;;11.00;;
58091;SDS011;43896;48.178;11.578;2023-03-01T00:05:54;18.90;;;10.82;;
58091;SDS011;43896;48.178;11.578;2023-03-01T00:08:19;20.75;;;11.65;;
58091;SDS011;43896;48.178;11.578;2023-03-01T00:10:45;18.15;;;10.55;;
58091;SDS011;43896;48.178;11.578;2023-03-01T00:13:10;19.00;;;11.27;;
58091;SDS011;43896;48.178;11.578;2023-03-01T00:15:38;19.27;;;11.27;;
58091;SDS011;43896;48.178;11.578;2023-03-01T00:18:08;19.15;;;11.85;;
58091;SDS011;43896;48.178;11.578;2023-03-01T00:20:34;19.20;;;11.57;;
58091;SDS011;43896;48.178;11.578;2023-03-01T00:23:00;20.48;;;10.77;;
58091;SDS011;43896;48.178;11.578;2023-03-01T00:25:25;19.58;;;11.43;;
58091;SDS011;43896;48.178;11.578;2023-03-01T00:27:50;20.05;;;11.77;;
58091;SDS011;43896;48.178;11.578;2023-03-01T00:30:16;19.08;;;10.98;;
58091;SDS011;43896;48.178;11.578;2023-03-01T00:32:41;19.50;;;11.25;;
58091;SDS011;43896;48.178;11.578;2023-03-01T00:35:07;19.20;;;11.15;;
58091;SDS011;43896;48.178;11.578;2023-03-01T00:37:32;18.38;;;10.45;;
58091;SDS011;43896;48.178;11.578;2023-03-01T00:39:57;20.15;;;11.45;;
58091;SDS011;43896;48.178;11.578;2023-03-01T00:42:23;19.55;;;11.45;;
58091;SDS011;43896;48.178;11.578;2023-03-01T00:44:48;18.42;;;11.07;;
58091;SDS011;43896;48.178;11.578;2023-03-01T00:47:13;18.42;;;10.93;;
58091;SDS011;43896;48.178;11.578;2023-03-01T00:49:39;18.98;;;11.25;;
58091;SDS011;43896;48.178;11.578;2023-03-01T00:52:04;18.27;;;11.05;;
58091;SDS011;43896;48.178;11.578;2023-03-01T00:54:30;18.83;;;10.93;;
58091;SDS011;43896;48.178;11.578;2023-03-01T00:56:55;17.52;;;10.63;;
58091;SDS011;43896;48.178;11.578;2023-03-01T00:59:20;18.52;;;10.95;;
58091;SDS011;43896;48.178;11.578;2023-03-01T01:01:46;20.48;;;11.27;;
58091;SDS011;43896;48.178;11.578;2023-03-01T01:04:13;18.55;;;11.60;;
58091;SDS011;43896;48.178;11.578;2023-03-01T01:06:43;19.73;;;11.90;;
58091;SDS011;43896;48.178;11.578;2023-03-01T01:09:12;19.40;;;11.48;;
58091;SDS011;43896;48.178;11.578;2023-03-01T01:11:42;20.27;;;11.70;;
58091;SDS011;43896;48.178;11.578;2023-03-01T01:14:08;19.10;;;11.15;;
58091;SDS011;43896;48.178;11.578;2023-03-01T01:16:34;22.00;;;11.55;;
58091;SDS011;43896;48.178;11.578;2023-03-01T01:18:59;19.75;;;11.52;;
58091;SDS011;43896;48.178;11.578;2023-03-01T01:21:25;18.33;;;11.60;;
58091;SDS011;43896;48.178;11.578;2023-03-01T01:23:51;17.70;;;10.93;;
58091;SDS011;43896;48.178;11.578;2023-03-01T01:26:17;18.00;;;11.27;;
58091;SDS011;43896;48.178;11.578;2023-03-01T01:28:48;18.15;;;11.10;;
58091;SDS011;43896;48.178;11.578;2023-03-01T01:31:13;19.83;;;11.57;;
58091;SDS011;43896;48.178;11.578;2023-03-01T01:33:39;17.30;;;10.73;;
58091;SDS011;43896;48.178;11.578;2023-03-01T01:36:06;18.25;;;11.07;;
58091;SDS011;43896;48.178;11.578;2023-03-01T01:38:32;18.95;;;11.40;;
58091;SDS011;43896;48.178;11.578;2023-03-01T01:40:58;19.73;;;11.43;;
58091;SDS011;43896;48.178;11.578;2023-03-01T01:43:25;19.48;;;11.68;;
58091;SDS011;43896;48.178;11.578;2023-03-01T01:46:06;19.75;;;11.52;;
58091;SDS011;43896;48.178;11.578;2023-03-01T01:48:48;19.58;;;11.57;;
58091;SDS011;43896;48.178;11.578;2023-03-01T01:51:18;18.40;;;11.05;;
58091;SDS011;43896;48.178;11.578;2023-03-01T01:53:50;19.73;;;11.93;;
58091;SDS011;43896;48.178;11.578;2023-03-01T01:56:19;19.00;;;10.57;;
58091;SDS011;43896;48.178;11.578;2023-03-01T01:58:46;19.30;;;11.73;;
58091;SDS011;43896;48.178;11.578;2023-03-01T02:01:13;17.85;;;10.75;;
58091;SDS011;43896;48.178;11.578;2023-03-01T02:03:38;18.58;;;11.52;;
58091;SDS011;43896;48.178;11.578;2023-03-01T02:06:41;20.35;;;12.02;;
58091;SDS011;43896;48.178;11.578;2023-03-01T02:09:03;18.65;;;11.73;;
58091;SDS011;43896;48.178;11.578;2023-03-01T02:11:32;19.58;;;11.50;;
58091;SDS011;43896;48.178;11.578;2023-03-01T02:13:59;18.92;;;11.57;;
58091;SDS011;43896;48.178;11.578;2023-03-01T02:16:26;18.85;;;11.80;;
58091;SDS011;43896;48.178;11.578;2023-03-01T02:18:51;19.33;;;11.82;;
58091;SDS011;43896;48.178;11.578;2023-03-01T02:21:35;18.52;;;10.90;;
58091;SDS011;43896;48.178;11.578;2023-03-01T02:24:13;18.48;;;11.25;;
58091;SDS011;43896;48.178;11.578;2023-03-01T02:26:56;18.35;;;11.30;;
58091;SDS011;43896;48.178;11.578;2023-03-01T02:29:23;18.67;;;10.80;;
58091;SDS011;43896;48.178;11.578;2023-03-01T02:31:49;19.30;;;11.10;;
58091;SDS011;43896;48.178;11.578;2023-03-01T02:34:21;18.85;;;11.23;;
58091;SDS011;43896;48.178;11.578;2023-03-01T02:39:19;18.40;;;11.32;;
58091;SDS011;43896;48.178;11.578;2023-03-01T02:41:51;21.25;;;12.07;;
58091;SDS011;43896;48.178;11.578;2023-03-01T02:44:19;18.58;;;11.23;;
58091;SDS011;43896;48.178;11.578;2023-03-01T02:46:47;21.05;;;11.20;;
58091;SDS011;43896;48.178;11.578;2023-03-01T02:49:18;18.23;;;10.98;;
58091;SDS011;43896;48.178;11.578;2023-03-01T02:54:40;19.00;;;11.70;;
58091;SDS011;43896;48.178;11.578;2023-03-01T02:57:11;20.35;;;12.25;;
58091;SDS011;43896;48.178;11.578;2023-03-01T02:59:37;19.60;;;11.48;;
58091;SDS011;43896;48.178;11.578;2023-03-01T03:02:18;18.63;;;11.55;;
58091;SDS011;43896;48.178;11.578;2023-03-01T03:04:46;19.23;;;11.25;;
58091;SDS011;43896;48.178;11.578;2023-03-01T03:07:11;19.92;;;11.18;;
58091;SDS011;43896;48.178;11.578;2023-03-01T03:09:37;20.52;;;11.93;;
58091;SDS011;43896;48.178;11.578;2023-03-01T03:12:02;18.23;;;11.75;;
58091;SDS011;43896;48.178;11.578;2023-03-01T03:14:28;19.60;;;12.13;;
58091;SDS011;43896;48.178;11.578;2023-03-01T03:16:53;21.70;;;12.30;;
58091;SDS011;43896;48.178;11.578;2023-03-01T03:19:18;18.25;;;11.05;;
58091;SDS011;43896;48.178;11.578;2023-03-01T03:21:44;21.88;;;11.95;;
58091;SDS011;43896;48.178;11.578;2023-03-01T03:24:10;19.40;;;11.65;;
58091;SDS011;43896;48.178;11.578;2023-03-01T03:26:35;19.30;;;11.55;;
58091;SDS011;43896;48.178;11.578;2023-03-01T03:29:00;19.48;;;11.88;;
58091;SDS011;43896;48.178;11.578;2023-03-01T03:31:26;19.63;;;11.52;;
58091;SDS011;43896;48.178;11.578;2023-03-01T03:33:52;17.83;;;11.13;;
58091;SDS011;43896;48.178;11.578;2023-03-01T03:36:19;21.88;;;11.95;;
58091;SDS011;43896;48.178;11.578;2023-03-01T03:38:45;21.05;;;12.05;;
58091;SDS011;43896;48.178;11.578;2023-03-01T03:41:11;18.90;;;11.40;;
58091;SDS011;43896;48.178;11.578;2023-03-01T03:43:38;18.73;;;11.48;;
58091;SDS011;43896;48.178;11.578;2023-03-01T03:46:05;18.83;;;11.45;;
58091;SDS011;43896;48.178;11.578;2023-03-01T03:48:34;18.70;;;11.43;;
58091;SDS011;43896;48.178;11.578;2023-03-01T03:51:02;18.17;;;11.35;;
58091;SDS011;43896;48.178;11.578;2023-03-01T03:53:30;19.73;;;11.68;;
58091;SDS011;43896;48.178;11.578;2023-03-01T03:55:55;19.73;;;11.93;;
58091;SDS011;43896;48.178;11.578;2023-03-01T03:58:21;18.90;;;12.35;;
58091;SDS011;43896;48.178;11.578;2023-03-01T04:00:49;19.13;;;12.02;;
58091;SDS011;43896;48.178;11.578;2023-03-01T04:03:16;19.35;;;11.82;;
58091;SDS011;43896;48.178;11.578;2023-03-01T04:05:43;20.63;;;12.23;;
58091;SDS011;43896;48.178;11.578;2023-03-01T04:08:09;19.60;;;11.77;;
58091;SDS011;43896;48.178;11.578;2023-03-01T04:10:39;19.05;;;11.13;;
58091;SDS011;43896;48.178;11.578;2023-03-01T04:13:10;22.23;;;12.13;;
58091;SDS011;43896;48.178;11.578;2023-03-01T04:15:37;20.75;;;12.15;;
58091;SDS011;43896;48.178;11.578;2023-03-01T04:18:03;19.08;;;11.18;;
58091;SDS011;43896;48.178;11.578;2023-03-01T04:20:31;21.30;;;12.32;;
58091;SDS011;43896;48.178;11.578;2023-03-01T04:25:56;20.73;;;11.63;;
58091;SDS011;43896;48.178;11.578;2023-03-01T04:28:22;19.55;;;11.93;;
58091;SDS011;43896;48.178;11.578;2023-03-01T04:31:05;18.55;;;11.15;;
58091;SDS011;43896;48.178;11.578;2023-03-01T04:33:38;19.50;;;11.35;;
58091;SDS011;43896;48.178;11.578;2023-03-01T04:36:11;19.98;;;11.88;;
58091;SDS011;43896;48.178;11.578;2023-03-01T04:38:38;18.88;;;11.70;;
58091;SDS011;43896;48.178;11.578;2023-03-01T04:41:05;19.33;;;11.27;;
58091;SDS011;43896;48.178;11.578;2023-03-01T04:43:32;18.73;;;11.07;;
58091;SDS011;43896;48.178;11.578;2023-03-01T04:46:02;21.85;;;11.98;;
58091;SDS011;43896;48.178;11.578;2023-03-01T04:48:31;20.63;;;11.75;;
58091;SDS011;43896;48.178;11.578;2023-03-01T04:51:00;18.20;;;11.48;;
58091;SDS011;43896;48.178;11.578;2023-03-01T04:53:26;19.13;;;11.45;;
58091;SDS011;43896;48.178;11.578;2023-03-01T04:55:53;19.50;;;11.93;;
58091;SDS011;43896;48.178;11.578;2023-03-01T04:58:19;19.63;;;10.32;;
58091;SDS011;43896;48.178;11.578;2023-03-01T05:00:44;21.25;;;11.27;;
58091;SDS011;43896;48.178;11.578;2023-03-01T05:03:10;19.73;;;11.90;;
58091;SDS011;43896;48.178;11.578;2023-03-01T05:05:38;18.92;;;11.50;;
58091;SDS011;43896;48.178;11.578;2023-03-01T05:08:05;19.73;;;12.02;;
58091;SDS011;43896;48.178;11.578;2023-03-01T05:10:32;18.90;;;11.65;;
58091;SDS011;43896;48.178;11.578;2023-03-01T05:13:00;22.00;;;11.63;;
58091;SDS011;43896;48.178;11.578;2023-03-01T05:15:26;19.63;;;11.50;;
58091;SDS011;43896;48.178;11.578;2023-03-01T05:17:58;19.08;;;12.00;;
58091;SDS011;43896;48.178;11.578;2023-03-01T05:20:25;19.60;;;11.35;;
58091;SDS011;43896;48.178;11.578;2023-03-01T05:22:51;20.38;;;11.38;;
58091;SDS011;43896;48.178;11.578;2023-03-01T05:25:19;22.58;;;11.98;;
58091;SDS011;43896;48.178;11.578;2023-03-01T05:27:46;20.13;;;11.55;;
58091;SDS011;43896;48.178;11.578;2023-03-01T05:30:12;20.15;;;11.23;;
58091;SDS011;43896;48.178;11.578;2023-03-01T05:32:46;20.08;;;11.55;;
58091;SDS011;43896;48.178;11.578;2023-03-01T05:35:14;20.70;;;11.93;;
58091;SDS011;43896;48.178;11.578;2023-03-01T05:37:42;20.25;;;11.25;;
58091;SDS011;43896;48.178;11.578;2023-03-01T05:40:13;19.95;;;11.73;;
58091;SDS011;43896;48.178;11.578;2023-03-01T05:42:53;21.35;;;11.30;;
58091;SDS011;43896;48.178;11.578;2023-03-01T05:45:22;21.13;;;12.15;;
58091;SDS011;43896;48.178;11.578;2023-03-01T05:47:50;21.17;;;12.38;;
58091;SDS011;43896;48.178;11.578;2023-03-01T05:50:17;20.27;;;12.00;;
58091;SDS011;43896;48.178;11.578;2023-03-01T05:52:45;19.73;;;11.32;;
58091;SDS011;43896;48.178;11.578;2023-03-01T05:55:11;20.58;;;12.38;;
58091;SDS011;43896;48.178;11.578;2023-03-01T05:57:36;19.98;;;11.63;;
58091;SDS011;43896;48.178;11.578;2023-03-01T06:00:02;20.15;;;11.52;;
58091;SDS011;43896;48.178;11.578;2023-03-01T06:02:28;20.60;;;11.18;;
58091;SDS011;43896;48.178;11.578;2023-03-01T06:04:54;20.77;;;11.45;;
58091;SDS011;43896;48.178;11.578;2023-03-01T06:07:19;19.45;;;11.13;;
58091;SDS011;43896;48.178;11.578;2023-03-01T06:09:45;23.70;;;13.00;;
58091;SDS011;43896;48.178;11.578;2023-03-01T06:12:10;21.15;;;12.43;;
58091;SDS011;43896;48.178;11.578;2023-03-01T06:14:35;21.58;;;12.10;;
58091;SDS011;43896;48.178;11.578;2023-03-01T06:17:00;21.35;;;12.43;;
58091;SDS011;43896;48.178;11.578;2023-03-01T06:19:26;22.52;;;12.65;;
58091;SDS011;43896;48.178;11.578;2023-03-01T06:21:51;23.67;;;12.80;;
58091;SDS011;43896;48.178;11.578;2023-03-01T06:24:16;22.75;;;12.57;;
58091;SDS011;43896;48.178;11.578;2023-03-01T06:26:42;20.17;;;12.30;;
58091;SDS011;43896;48.178;11.578;2023-03-01T06:29:07;20.38;;;12.05;;
58091;SDS011;43896;48.178;11.578;2023-03-01T06:31:33;22.48;;;12.55;;
58091;SDS011;43896;48.178;11.578;2023-03-01T06:33:59;21.90;;;12.05;;
58091;SDS011;43896;48.178;11.578;2023-03-01T06:36:24;22.00;;;12.85;;
58091;SDS011;43896;48.178;11.578;2023-03-01T06:38:49;20.70;;;11.52;;
58091;SDS011;43896;48.178;11.578;2023-03-01T06:41:15;20.38;;;12.30;;
58091;SDS011;43896;48.178;11.578;2023-03-01T06:43:40;20.77;;;11.77;;
58091;SDS011;43896;48.178;11.578;2023-03-01T06:46:05;19.17;;;11.43;;
58091;SDS011;43896;48.178;11.578;2023-03-01T06:48:32;20.73;;;11.73;;
58091;SDS011;43896;48.178;11.578;2023-03-01T06:50:58;20.80;;;12.30;;
58091;SDS011;43896;48.178;11.578;2023-03-01T06:53:25;20.42;;;11.25;;
58091;SDS011;43896;48.178;11.578;2023-03-01T06:55:57;22.65;;;12.15;;
58091;SDS011;43896;48.178;11.578;2023-03-01T06:58:25;21.92;;;11.73;;
58091;SDS011;43896;48.178;11.578;2023-03-01T07:00:50;21.08;;;11.70;;
58091;SDS011;43896;48.178;11.578;2023-03-01T07:03:16;19.90;;;11.88;;
58091;SDS011;43896;48.178;11.578;2023-03-01T07:05:41;21.35;;;11.77;;
58091;SDS011;43896;48.178;11.578;2023-03-01T07:08:07;20.98;;;11.95;;
58091;SDS011;43896;48.178;11.578;2023-03-01T07:10:32;21.30;;;12.20;;
58091;SDS011;43896;48.178;11.578;2023-03-01T07:12:57;21.98;;;12.07;;
58091;SDS011;43896;48.178;11.578;2023-03-01T07:15:24;22.55;;;12.18;;
58091;SDS011;43896;48.178;11.578;2023-03-01T07:17:50;21.65;;;12.35;;
58091;SDS011;43896;48.178;11.578;2023-03-01T07:20:16;22.50;;;13.10;;
58091;SDS011;43896;48.178;11.578;2023-03-01T07:22:50;22.10;;;11.77;;
58091;SDS011;43896;48.178;11.578;2023-03-01T07:25:16;20.27;;;11.60;;
58091;SDS011;43896;48.178;11.578;2023-03-01T07:27:41;21.40;;;11.48;;
58091;SDS011;43896;48.178;11.578;2023-03-01T07:30:07;21.75;;;11.75;;
58091;SDS011;43896;48.178;11.578;2023-03-01T07:32:33;23.02;;;12.60;;
58091;SDS011;43896;48.178;11.578;2023-03-01T07:34:58;22.38;;;12.18;;
58091;SDS011;43896;48.178;11.578;2023-03-01T07:37:24;22.00;;;12.30;;
58091;SDS011;43896;48.178;11.578;2023-03-01T07:39:49;22.67;;;12.32;;
58091;SDS011;43896;48.178;11.578;2023-03-01T07:42:14;22.02;;;12.38;;
58091;SDS011;43896;48.178;11.578;2023-03-01T07:44:39;22.75;;;12.70;;
58091;SDS011;43896;48.178;11.578;2023-03-01T07:47:05;21.63;;;12.38;;
58091;SDS011;43896;48.178;11.578;2023-03-01T07:49:30;21.67;;;12.02;;
58091;SDS011;43896;48.178;11.578;2023-03-01T07:51:55;21.08;;;11.95;;
58091;SDS011;43896;48.178;11.578;2023-03-01T07:54:21;23.88;;;12.15;;
58091;SDS011;43896;48.178;11.578;2023-03-01T07:56:46;22.58;;;12.32;;
58091;SDS011;43896;48.178;11.578;2023-03-01T07:59:12;22.10;;;12.05;;
58091;SDS011;43896;48.178;11.578;2023-03-01T08:01:37;21.05;;;11.80;;
58091;SDS011;43896;48.178;11.578;2023-03-01T08:04:02;21.95;;;11.90;;
58091;SDS011;43896;48.178;11.578;2023-03-01T08:06:29;21.10;;;12.18;;
58091;SDS011;43896;48.178;11.578;2023-03-01T08:08:55;20.58;;;11.80;;
58091;SDS011;43896;48.178;11.578;2023-03-01T08:11:20;21.92;;;12.15;;
58091;SDS011;43896;48.178;11.578;2023-03-01T08:13:47;23.10;;;12.88;;
58091;SDS011;43896;48.178;11.578;2023-03-01T08:16:14;23.70;;;12.70;;
58091;SDS011;43896;48.178;11.578;2023-03-01T08:18:40;23.48;;;12.73;;
58091;SDS011;43896;48.178;11.578;2023-03-01T08:21:09;22.85;;;12.50;;
58091;SDS011;43896;48.178;11.578;2023-03-01T08:23:36;21.80;;;12.07;;
58091;SDS011;43896;48.178;11.578;2023-03-01T08:26:03;22.20;;;12.18;;
58091;SDS011;43896;48.178;11.578;2023-03-01T08:28:32;24.17;;;12.45;;
58091;SDS011;43896;48.178;11.578;2023-03-01T08:30:58;23.80;;;12.73;;
58091;SDS011;43896;48.178;11.578;2023-03-01T08:33:23;23.38;;;12.73;;
58091;SDS011;43896;48.178;11.578;2023-03-01T08:35:49;23.35;;;12.80;;
58091;SDS011;43896;48.178;11.578;2023-03-01T08:38:14;22.85;;;12.88;;
58091;SDS011;43896;48.178;11.578;2023-03-01T08:40:39;23.92;;;12.70;;
58091;SDS011;43896;48.178;11.578;2023-03-01T08:43:05;23.50;;;13.30;;
58091;SDS011;43896;48.178;11.578;2023-03-01T08:45:30;21.88;;;12.32;;
58091;SDS011;43896;48.178;11.578;2023-03-01T08:47:55;24.40;;;12.88;;
58091;SDS011;43896;48.178;11.578;2023-03-01T08:50:20;24.67;;;13.15;;
58091;SDS011;43896;48.178;11.578;2023-03-01T08:52:46;24.20;;;12.70;;
58091;SDS011;43896;48.178;11.578;2023-03-01T08:55:11;22.83;;;13.05;;
58091;SDS011;43896;48.178;11.578;2023-03-01T08:57:36;22.25;;;13.07;;
58091;SDS011;43896;48.178;11.578;2023-03-01T09:00:02;26.55;;;13.18;;
58091;SDS011;43896;48.178;11.578;2023-03-01T09:02:28;23.00;;;12.65;;
58091;SDS011;43896;48.178;11.578;2023-03-01T09:04:53;21.80;;;12.23;;
58091;SDS011;43896;48.178;11.578;2023-03-01T09:07:18;22.75;;;12.82;;
58091;SDS011;43896;48.178;11.578;2023-03-01T09:09:44;22.50;;;12.93;;
58091;SDS011;43896;48.178;11.578;2023-03-01T09:12:09;24.60;;;12.70;;
58091;SDS011;43896;48.178;11.578;2023-03-01T09:14:34;22.85;;;12.50;;
58091;SDS011;43896;48.178;11.578;2023-03-01T09:17:02;22.65;;;12.68;;
58091;SDS011;43896;48.178;11.578;2023-03-01T09:19:28;22.63;;;12.70;;
58091;SDS011;43896;48.178;11.578;2023-03-01T09:21:53;24.45;;;12.52;;
58091;SDS011;43896;48.178;11.578;2023-03-01T09:24:20;21.80;;;12.40;;
58091;SDS011;43896;48.178;11.578;2023-03-01T09:26:46;24.13;;;12.75;;
58091;SDS011;43896;48.178;11.578;2023-03-01T09:29:12;24.50;;;12.35;;
58091;SDS011;43896;48.178;11.578;2023-03-01T09:31:39;22.77;;;12.35;;
58091;SDS011;43896;48.178;11.578;2023-03-01T09:34:05;21.65;;;12.65;;
58091;SDS011;43896;48.178;11.578;2023-03-01T09:36:31;22.38;;;12.57;;
58091;SDS011;43896;48.178;11.578;2023-03-01T09:38:57;23.20;;;12.43;;
58091;SDS011;43896;48.178;11.578;2023-03-01T09:46:51;22.10;;;12.82;;
58091;SDS011;43896;48.178;11.578;2023-03-01T09:49:18;20.65;;;11.98;;
58091;SDS011;43896;48.178;11.578;2023-03-01T09:51:54;23.08;;;12.23;;
58091;SDS011;43896;48.178;11.578;2023-03-01T09:54:22;25.88;;;12.88;;
58091;SDS011;43896;48.178;11.578;2023-03-01T10:02:27;24.20;;;13.50;;
58091;SDS011;43896;48.178;11.578;2023-03-01T10:04:57;24.20;;;13.27;;
58091;SDS011;43896;48.178;11.578;2023-03-01T10:07:45;23.52;;;13.48;;
58091;SDS011;43896;48.178;11.578;2023-03-01T10:10:29;21.42;;;12.25;;
58091;SDS011;43896;48.178;11.578;2023-03-01T10:12:59;24.50;;;13.27;;
58091;SDS011;43896;48.178;11.578;2023-03-01T10:15:34;22.58;;;12.57;;
58091;SDS011;43896;48.178;11.578;2023-03-01T10:18:05;23.30;;;12.93;;
58091;SDS011;43896;48.178;11.578;2023-03-01T10:20:46;22.30;;;13.02;;
58091;SDS011;43896;48.178;11.578;2023-03-01T10:23:17;22.27;;;13.18;;
58091;SDS011;43896;48.178;11.578;2023-03-01T10:28:30;23.45;;;13.27;;
58091;SDS011;43896;48.178;11.578;2023-03-01T10:31:11;20.42;;;11.93;;
58091;SDS011;43896;48.178;11.578;2023-03-01T10:33:38;22.02;;;13.13;;
58091;SDS011;43896;48.178;11.578;2023-03-01T10:36:07;22.63;;;12.82;;
58091;SDS011;43896;48.178;11.578;2023-03-01T10:38:46;21.05;;;13.13;;
58091;SDS011;43896;48.178;11.578;2023-03-01T10:41:18;23.40;;;13.45;;
58091;SDS011;43896;48.178;11.578;2023-03-01T10:43:46;23.70;;;14.20;;
58091;SDS011;43896;48.178;11.578;2023-03-01T10:46:33;23.17;;;14.55;;
58091;SDS011;43896;48.178;11.578;2023-03-01T10:49:20;21.95;;;13.88;;
58091;SDS011;43896;48.178;11.578;2023-03-01T10:51:51;21.20;;;13.32;;
58091;SDS011;43896;48.178;11.578;2023-03-01T10:57:00;22.02;;;13.90;;
58091;SDS011;43896;48.178;11.578;2023-03-01T11:04:34;21.88;;;13.80;;
58091;SDS011;43896;48.178;11.578;2023-03-01T11:06:59;22.10;;;13.82;;
58091;SDS011;43896;48.178;11.578;2023-03-01T11:09:26;22.40;;;14.63;;
58091;SDS011;43896;48.178;11.578;2023-03-01T11:12:02;22.90;;;13.85;;
58091;SDS011;43896;48.178;11.578;2023-03-01T11:14:35;22.52;;;14.35;;
58091;SDS011;43896;48.178;11.578;2023-03-01T11:17:04;23.23;;;14.32;;
58091;SDS011;43896;48.178;11.578;2023-03-01T11:19:37;23.13;;;14.40;;
58091;SDS011;43896;48.178;11.578;2023-03-01T11:22:13;23.15;;;13.75;;
58091;SDS011;43896;48.178;11.578;2023-03-01T11:24:43;21.77;;;13.90;;
58091;SDS011;43896;48.178;11.578;2023-03-01T11:27:19;22.60;;;14.07;;
58091;SDS011;43896;48.178;11.578;2023-03-01T11:29:55;22.63;;;14.00;;
58091;SDS011;43896;48.178;11.578;2023-03-01T11:32:26;23.75;;;14.82;;
58091;SDS011;43896;48.178;11.578;2023-03-01T11:48:44;22.63;;;14.77;;
58091;SDS011;43896;48.178;11.578;2023-03-01T11:51:59;21.58;;;14.38;;
58091;SDS011;43896;48.178;11.578;2023-03-01T11:56:58;23.35;;;14.68;;
58091;SDS011;43896;48.178;11.578;2023-03-01T12:08:10;23.00;;;13.85;;
58091;SDS011;43896;48.178;11.578;2023-03-01T12:11:10;22.98;;;14.23;;
58091;SDS011;43896;48.178;11.578;2023-03-01T12:33:22;22.38;;;14.52;;
58091;SDS011;43896;48.178;11.578;2023-03-01T12:36:09;22.53;;;14.63;;
58091;SDS011;43896;48.178;11.578;2023-03-01T12:44:45;23.27;;;14.63;;
58091;SDS011;43896;48.178;11.578;2023-03-01T12:47:26;22.23;;;14.73;;
58091;SDS011;43896;48.178;11.578;2023-03-01T12:50:03;23.67;;;14.27;;
58091;SDS011;43896;48.178;11.578;2023-03-01T12:52:50;23.70;;;14.70;;
58091;SDS011;43896;48.178;11.578;2023-03-01T12:55:27;22.83;;;13.65;;
58091;SDS011;43896;48.178;11.578;2023-03-01T12:58:00;23.80;;;14.68;;
58091;SDS011;43896;48.178;11.578;2023-03-01T13:00:31;21.60;;;14.20;;
58091;SDS011;43896;48.178;11.578;2023-03-01T13:03:10;23.67;;;14.43;;
58091;SDS011;43896;48.178;11.578;2023-03-01T13:06:02;25.63;;;14.60;;
58091;SDS011;43896;48.178;11.578;2023-03-01T13:08:31;23.38;;;15.02;;
58091;SDS011;43896;48.178;11.578;2023-03-01T13:11:25;23.58;;;15.07;;
58091;SDS011;43896;48.178;11.578;2023-03-01T13:13:51;26.83;;;15.23;;
58091;SDS011;43896;48.178;11.578;2023-03-01T13:16:20;25.50;;;15.60;;
58091;SDS011;43896;48.178;11.578;2023-03-01T13:21:45;22.85;;;14.35;;
58091;SDS011;43896;48.178;11.578;2023-03-01T13:24:29;24.50;;;14.40;;
58091;SDS011;43896;48.178;11.578;2023-03-01T13:29:30;23.50;;;14.48;;
58091;SDS011;43896;48.178;11.578;2023-03-01T13:34:51;23.73;;;14.10;;
58091;SDS011;43896;48.178;11.578;2023-03-01T13:37:32;23.25;;;15.13;;
58091;SDS011;43896;48.178;11.578;2023-03-01T13:40:01;21.58;;;13.38;;
58091;SDS011;43896;48.178;11.578;2023-03-01T13:42:41;22.60;;;14.73;;
58091;SDS011;43896;48.178;11.578;2023-03-01T13:45:24;23.85;;;13.95;;
58091;SDS011;43896;48.178;11.578;2023-03-01T13:48:01;22.52;;;14.70;;
58091;SDS011;43896;48.178;11.578;2023-03-01T13:50:33;23.52;;;14.35;;
58091;SDS011;43896;48.178;11.578;2023-03-01T13:53:09;23.77;;;14.77;;
58091;SDS011;43896;48.178;11.578;2023-03-01T13:55:42;23.75;;;14.88;;
58091;SDS011;43896;48.178;11.578;2023-03-01T13:58:19;21.80;;;13.75;;
58091;SDS011;43896;48.178;11.578;2023-03-01T14:00:54;22.13;;;14.02;;
58091;SDS011;43896;48.178;11.578;2023-03-01T14:03:21;23.20;;;13.88;;
58091;SDS011;43896;48.178;11.578;2023-03-01T14:08:31;22.70;;;14.18;;
58091;SDS011;43896;48.178;11.578;2023-03-01T14:19:29;22.03;;;13.30;;
58091;SDS011;43896;48.178;11.578;2023-03-01T14:21:32;23.90;;;14.80;;
58091;SDS011;43896;48.178;11.578;2023-03-01T14:23:57;25.27;;;13.75;;
58091;SDS011;43896;48.178;11.578;2023-03-01T14:26:23;22.08;;;13.25;;
58091;SDS011;43896;48.178;11.578;2023-03-01T14:28:49;21.70;;;13.25;;
58091;SDS011;43896;48.178;11.578;2023-03-01T14:33:56;23.30;;;13.70;;
58091;SDS011;43896;48.178;11.578;2023-03-01T14:36:25;23.08;;;14.02;;
58091;SDS011;43896;48.178;11.578;2023-03-01T14:38:52;22.00;;;13.30;;
58091;SDS011;43896;48.178;11.578;2023-03-01T14:41:20;19.92;;;12.85;;
58091;SDS011;43896;48.178;11.578;2023-03-01T14:43:52;22.33;;;13.77;;
58091;SDS011;43896;48.178;11.578;2023-03-01T14:46:22;23.17;;;12.73;;
58091;SDS011;43896;48.178;11.578;2023-03-01T14:48:51;23.83;;;12.90;;
58091;SDS011;43896;48.178;11.578;2023-03-01T14:51:19;20.73;;;13.15;;
58091;SDS011;43896;48.178;11.578;2023-03-01T14:53:44;24.55;;;13.70;;
58091;SDS011;43896;48.178;11.578;2023-03-01T14:56:14;24.13;;;13.05;;
58091;SDS011;43896;48.178;11.578;2023-03-01T14:58:42;21.83;;;13.18;;
58091;SDS011;43896;48.178;11.578;2023-03-01T15:01:10;21.98;;;12.77;;
58091;SDS011;43896;48.178;11.578;2023-03-01T15:03:43;17.92;;;11.10;;
58091;SDS011;43896;48.178;11.578;2023-03-01T15:06:11;19.30;;;12.25;;
58091;SDS011;43896;48.178;11.578;2023-03-01T15:08:41;19.15;;;12.10;;
58091;SDS011;43896;48.178;11.578;2023-03-01T15:13:47;19.33;;;12.30;;
58091;SDS011;43896;48.178;11.578;2023-03-01T15:16:14;18.00;;;10.90;;
58091;SDS011;43896;48.178;11.578;2023-03-01T15:18:45;17.95;;;11.35;;
58091;SDS011;43896;48.178;11.578;2023-03-01T15:21:22;18.30;;;11.98;;
58091;SDS011;43896;48.178;11.578;2023-03-01T15:23:53;19.85;;;11.48;;
58091;SDS011;43896;48.178;11.578;2023-03-01T15:26:29;21.00;;;12.27;;
58091;SDS011;43896;48.178;11.578;2023-03-01T15:28:58;18.88;;;11.98;;
58091;SDS011;43896;48.178;11.578;2023-03-01T15:31:26;17.58;;;11.57;;
58091;SDS011;43896;48.178;11.578;2023-03-01T15:33:51;19.10;;;11.25;;
58091;SDS011;43896;48.178;11.578;2023-03-01T15:36:37;20.25;;;12.00;;
58091;SDS011;43896;48.178;11.578;2023-03-01T15:39:23;17.60;;;10.73;;
58091;SDS011;43896;48.178;11.578;2023-03-01T15:45:06;18.73;;;10.93;;
58091;SDS011;43896;48.178;11.578;2023-03-01T15:48:26;21.50;;;11.18;;
58091;SDS011;43896;48.178;11.578;2023-03-01T15:50:53;19.60;;;11.07;;
58091;SDS011;43896;48.178;11.578;2023-03-01T15:53:20;18.30;;;10.98;;
58091;SDS011;43896;48.178;11.578;2023-03-01T15:55:45;18.52;;;11.27;;
58091;SDS011;43896;48.178;11.578;2023-03-01T15:58:18;18.83;;;10.73;;
58091;SDS011;43896;48.178;11.578;2023-03-01T16:00:46;18.08;;;11.02;;
58091;SDS011;43896;48.178;11.578;2023-03-01T16:03:14;19.20;;;10.75;;
58091;SDS011;43896;48.178;11.578;2023-03-01T16:05:46;17.70;;;10.32;;
58091;SDS011;43896;48.178;11.578;2023-03-01T16:08:12;19.77;;;10.38;;